Time;durP1;ratioP1;P1;durP2;ratioP2;P2;SDS_P1;SDS_P2;PMS_P1;PMS_P2;Temp;Humidity;BMP_temperature;BMP_pressure;BME280_temperature;BME280_humidity;BME280_pressure;Samples;Min_cycle;Max_cycle;Signal;HPM_P1;HPM_P2
2021/11/29 00:00:21;;;;;;;7.88;4.45;;;2.20;99.90;;;;;;12269593;28;20051;-39
2021/11/29 00:06:23;;;;;;;7.97;4.05;;;2.20;99.90;;;;;;12268923;28;20797;-39
2021/11/29 00:12:26;;;;;;;7.03;4.30;;;2.20;99.90;;;;;;12246223;28;20461;-38
2021/11/29 00:18:29;;;;;;;5.90;3.83;;;2.30;99.90;;;;;;12268225;28;20051;-39
2021/11/29 00:24:34;;;;;;;6.57;3.92;;;2.20;99.90;;;;;;12260304;28;20059;-38
2021/11/29 00:30:38;;;;;;;6.07;4.07;;;2.20;99.90;;;;;;12258949;28;20051;-39
2021/11/29 00:36:41;;;;;;;4.50;3.28;;;2.20;99.90;;;;;;12264832;28;20051;-39
2021/11/29 00:42:43;;;;;;;5.90;3.60;;;2.20;99.90;;;;;;12265341;28;20070;-38
2021/11/29 00:48:46;;;;;;;4.32;2.90;;;2.30;99.90;;;;;;12270164;28;20074;-39
2021/11/29 00:54:48;;;;;;;4.50;2.90;;;2.20;99.90;;;;;;12268170;28;20079;-38
2021/11/29 01:00:50;;;;;;;6.70;2.85;;;2.20;99.90;;;;;;12265919;28;20153;-39
2021/11/29 01:06:53;;;;;;;9.00;2.92;;;2.30;99.90;;;;;;12241351;28;20083;-39
2021/11/29 01:12:57;;;;;;;5.47;2.65;;;2.20;99.90;;;;;;12246105;28;20051;-38
2021/11/29 01:18:59;;;;;;;6.95;2.72;;;2.30;99.90;;;;;;12266191;28;20055;-39
2021/11/29 01:25:03;;;;;;;4.22;2.50;;;2.20;99.90;;;;;;12258909;28;20058;-39
2021/11/29 01:31:07;;;;;;;;;;;2.20;99.90;;;;;;12261705;28;20104;-38
2021/11/29 01:37:09;;;;;;;6.35;3.83;;;2.30;99.90;;;;;;12261024;28;19953;-37
2021/11/29 01:43:15;;;;;;;7.40;4.22;;;2.30;99.90;;;;;;12268580;28;20064;-38
2021/11/29 01:49:19;;;;;;;7.88;4.78;;;2.20;99.90;;;;;;12272791;28;20069;-39
2021/11/29 01:55:24;;;;;;;9.55;5.05;;;2.10;99.90;;;;;;12267774;28;20155;-37
2021/11/29 02:08:52;;;;;;;;;;;1.90;99.90;;;;;;12239653;28;20732;-39
2021/11/29 02:14:54;;;;;;;10.90;4.60;;;1.90;99.90;;;;;;12224415;29;19949;-38
2021/11/29 02:21:13;;;;;;;7.25;4.07;;;1.90;99.90;;;;;;12220196;29;20044;-39
2021/11/29 02:27:15;;;;;;;10.65;4.40;;;1.90;99.90;;;;;;12223808;29;20080;-38
2021/11/29 02:33:17;;;;;;;7.85;3.95;;;2.00;99.90;;;;;;12223229;29;20056;-40
2021/11/29 02:39:20;;;;;;;10.43;4.30;;;1.90;99.90;;;;;;12222532;29;20581;-38
2021/11/29 02:45:23;;;;;;;12.18;4.53;;;1.90;99.90;;;;;;12224006;29;20570;-39
2021/11/29 02:51:39;;;;;;;6.85;4.40;;;1.70;99.90;;;;;;12222809;29;20043;-38
2021/11/29 02:57:41;;;;;;;9.15;4.00;;;1.80;99.90;;;;;;12219759;29;20079;-39
2021/11/29 03:03:51;;;;;;;6.50;3.83;;;1.90;99.90;;;;;;12222084;29;20080;-37
2021/11/29 03:09:54;;;;;;;10.40;4.00;;;1.90;99.90;;;;;;12224751;29;20051;-39
2021/11/29 03:15:56;;;;;;;13.23;3.88;;;1.90;99.90;;;;;;12206917;29;20072;-37
2021/11/29 03:21:59;;;;;;;7.20;3.70;;;1.80;99.90;;;;;;12200144;29;20138;-38
2021/11/29 03:28:01;;;;;;;8.88;3.75;;;1.80;99.90;;;;;;12218386;29;20138;-38
2021/11/29 03:34:05;;;;;;;8.23;3.40;;;1.90;99.90;;;;;;12219874;29;20051;-37
2021/11/29 03:40:08;;;;;;;8.07;3.40;;;1.90;99.90;;;;;;12225308;29;20601;-39
2021/11/29 03:46:11;;;;;;;6.28;3.13;;;1.90;99.90;;;;;;12192219;29;20052;-39
2021/11/29 03:52:13;;;;;;;8.23;3.17;;;1.90;99.90;;;;;;12221171;29;20709;-38
2021/11/29 03:58:15;;;;;;;8.75;3.10;;;1.90;99.90;;;;;;12218934;29;20102;-38
2021/11/29 04:04:17;;;;;;;9.57;3.40;;;1.90;99.90;;;;;;12216351;29;20058;-39
2021/11/29 04:10:20;;;;;;;4.05;2.50;;;1.90;99.90;;;;;;12207031;29;20591;-38
2021/11/29 04:16:23;;;;;;;8.85;2.47;;;1.90;99.90;;;;;;12218019;29;20501;-39
2021/11/29 04:22:26;;;;;;;8.90;2.92;;;1.80;99.90;;;;;;12218833;29;20052;-37
2021/11/29 04:28:29;;;;;;;8.98;2.88;;;1.70;99.90;;;;;;12220509;29;20064;-38
2021/11/29 04:34:32;;;;;;;6.10;2.57;;;1.70;99.90;;;;;;12217091;29;20094;-39
2021/11/29 04:40:37;;;;;;;7.32;2.13;;;1.70;99.90;;;;;;12216748;29;20086;-37
2021/11/29 04:46:39;;;;;;;5.03;2.17;;;1.60;99.90;;;;;;12214909;29;20469;-39
2021/11/29 04:52:42;;;;;;;5.18;2.03;;;1.60;99.90;;;;;;12217041;29;20055;-39
2021/11/29 04:58:45;;;;;;;8.32;2.13;;;1.60;99.90;;;;;;12220023;29;20527;-39
2021/11/29 05:04:47;;;;;;;4.57;1.95;;;1.60;99.90;;;;;;12211073;28;20040;-37
2021/11/29 05:10:55;;;;;;;4.03;1.90;;;1.60;99.90;;;;;;12215742;29;20536;-40
2021/11/29 05:16:57;;;;;;;6.88;2.20;;;1.60;99.90;;;;;;12222275;29;20070;-38
2021/11/29 05:22:59;;;;;;;7.18;2.20;;;1.70;99.90;;;;;;12210014;29;20056;-40
2021/11/29 05:29:02;;;;;;;10.75;2.60;;;1.80;99.90;;;;;;12230223;29;20098;-39
2021/11/29 05:35:07;;;;;;;9.73;2.58;;;1.80;99.90;;;;;;12224074;29;20476;-38
2021/11/29 05:41:10;;;;;;;5.38;2.22;;;1.70;99.90;;;;;;12225847;29;20066;-39
2021/11/29 05:47:12;;;;;;;8.85;1.98;;;1.70;99.90;;;;;;12225856;29;20051;-38
2021/11/29 05:53:14;;;;;;;7.78;1.95;;;1.80;99.90;;;;;;12211291;28;20693;-39
2021/11/29 05:59:18;;;;;;;7.70;2.20;;;1.90;99.90;;;;;;12270744;28;20090;-38
2021/11/29 06:05:23;;;;;;;6.95;2.00;;;1.80;99.90;;;;;;12268233;28;20524;-38
2021/11/29 06:11:26;;;;;;;6.47;2.05;;;1.70;99.90;;;;;;12274714;28;20617;-38
2021/11/29 06:17:28;;;;;;;6.47;1.60;;;1.60;99.90;;;;;;12271858;28;20059;-38
2021/11/29 06:23:36;;;;;;;6.70;2.20;;;1.70;99.90;;;;;;12265608;28;20062;-39
2021/11/29 06:29:44;;;;;;;7.82;2.10;;;1.70;99.90;;;;;;12252187;28;20139;-39
2021/11/29 06:35:51;;;;;;;9.90;1.88;;;1.60;99.90;;;;;;12254582;28;20055;-38
2021/11/29 06:41:53;;;;;;;7.65;1.85;;;1.70;99.90;;;;;;12272020;28;20059;-37
2021/11/29 06:47:56;;;;;;;9.30;2.03;;;1.60;99.90;;;;;;12272143;28;20066;-37
2021/11/29 06:53:58;;;;;;;6.47;1.90;;;1.70;99.90;;;;;;12271059;28;20047;-39
2021/11/29 07:00:05;;;;;;;6.85;1.92;;;1.70;99.90;;;;;;12255128;28;20150;-38
2021/11/29 07:06:09;;;;;;;;;;;1.70;99.90;;;;;;12259856;28;20098;-37
2021/11/29 07:12:24;;;;;;;6.05;1.73;;;1.80;99.90;;;;;;12274324;28;19973;-38
2021/11/29 07:18:30;;;;;;;7.70;1.70;;;1.70;99.90;;;;;;12263146;28;20051;-37
2021/11/29 07:24:34;;;;;;;9.57;1.95;;;1.80;99.90;;;;;;12265142;28;20472;-37
2021/11/29 07:30:37;;;;;;;6.10;2.10;;;1.70;99.90;;;;;;12273419;28;20047;-37
2021/11/29 07:36:43;;;;;;;13.27;3.08;;;1.70;99.90;;;;;;12273297;28;20054;-38
2021/11/29 07:42:49;;;;;;;5.00;1.83;;;1.70;99.90;;;;;;12274087;28;20051;-38
2021/11/29 07:48:52;;;;;;;6.07;2.13;;;1.70;99.90;;;;;;12271940;28;20047;-38
2021/11/29 07:54:56;;;;;;;6.43;2.37;;;1.70;99.90;;;;;;12255511;28;20495;-39
2021/11/29 08:01:03;;;;;;;10.07;2.83;;;1.60;99.90;;;;;;12220268;29;20146;-39
2021/11/29 08:07:16;;;;;;;6.78;2.67;;;1.60;99.90;;;;;;12203624;29;20052;-38
2021/11/29 08:13:27;;;;;;;7.47;2.60;;;1.60;99.90;;;;;;12224618;29;20488;-38
2021/11/29 08:19:37;;;;;;;8.43;2.97;;;1.70;99.90;;;;;;12221964;29;20052;-38
2021/11/29 08:25:46;;;;;;;7.25;3.20;;;1.60;99.90;;;;;;12220201;29;20043;-39
2021/11/29 08:31:49;;;;;;;8.63;3.33;;;1.50;99.90;;;;;;12222473;29;20055;-38
2021/11/29 08:37:54;;;;;;;13.32;3.60;;;1.70;99.90;;;;;;12222168;29;20412;-39
2021/11/29 08:44:03;;;;;;;12.57;6.13;;;1.60;99.90;;;;;;12222390;29;20087;-38
2021/11/29 08:50:12;;;;;;;12.87;4.40;;;1.70;99.90;;;;;;12220101;29;20079;-39
2021/11/29 08:56:31;;;;;;;7.10;3.22;;;1.80;99.90;;;;;;12215030;29;20411;-39
2021/11/29 09:02:34;;;;;;;9.80;3.00;;;1.90;99.90;;;;;;12220744;29;20048;-39
2021/11/29 09:08:39;;;;;;;9.52;3.63;;;2.00;99.90;;;;;;12226580;29;20066;-39
2021/11/29 09:14:42;;;;;;;13.00;3.47;;;2.10;99.90;;;;;;12218354;29;20083;-39
2021/11/29 09:20:44;;;;;;;8.30;4.25;;;2.10;99.90;;;;;;12222893;29;20134;-39
2021/11/29 09:26:49;;;;;;;11.02;4.20;;;2.20;99.90;;;;;;12225033;29;20136;-38
2021/11/29 09:32:52;;;;;;;9.43;5.00;;;2.10;99.90;;;;;;12220775;29;20103;-38
2021/11/29 09:38:55;;;;;;;11.15;4.75;;;2.20;99.90;;;;;;12227980;29;20052;-38
2021/11/29 09:44:57;;;;;;;11.25;5.18;;;2.30;99.90;;;;;;12226235;29;20059;-39
2021/11/29 09:51:00;;;;;;;9.52;4.88;;;2.30;99.90;;;;;;12225208;29;20044;-38
2021/11/29 09:57:03;;;;;;;9.85;4.88;;;2.50;99.90;;;;;;12220440;29;20067;-39
2021/11/29 10:03:06;;;;;;;10.73;5.47;;;2.40;99.90;;;;;;12203884;29;20096;-38
2021/11/29 10:09:34;;;;;;;12.30;5.88;;;2.50;99.90;;;;;;12223171;29;20044;-39
2021/11/29 10:15:40;;;;;;;10.98;5.40;;;2.50;99.90;;;;;;12220004;29;20068;-38
2021/11/29 10:21:43;;;;;;;11.40;5.22;;;2.70;99.90;;;;;;12219176;29;20056;-38
2021/11/29 10:27:47;;;;;;;11.07;5.30;;;2.60;99.90;;;;;;12220464;29;20492;-37
2021/11/29 10:33:55;;;;;;;10.85;5.97;;;2.60;99.90;;;;;;12220827;29;20952;-38
2021/11/29 10:39:57;;;;;;;;;;;2.70;99.90;;;;;;12221213;29;20648;-38
2021/11/29 10:46:18;;;;;;;9.90;5.85;;;2.80;99.90;;;;;;12216704;29;19965;-39
2021/11/29 10:52:23;;;;;;;12.63;6.40;;;2.80;99.90;;;;;;12219930;29;20058;-39
2021/11/29 10:58:28;;;;;;;13.70;6.10;;;2.80;99.90;;;;;;12219309;29;20142;-39
2021/11/29 11:04:33;;;;;;;17.40;6.43;;;3.00;99.90;;;;;;12223128;29;20578;-39
2021/11/29 11:10:35;;;;;;;11.32;6.45;;;2.80;99.90;;;;;;12219377;29;20047;-38
2021/11/29 11:16:46;;;;;;;10.27;6.50;;;2.70;99.90;;;;;;12218474;29;20052;-39
2021/11/29 11:22:55;;;;;;;12.43;6.20;;;2.80;99.90;;;;;;12217316;29;20154;-38
2021/11/29 11:28:59;;;;;;;10.52;6.40;;;3.10;99.90;;;;;;12216733;29;20098;-38
2021/11/29 11:35:08;;;;;;;10.90;6.25;;;2.90;99.90;;;;;;12220032;29;20166;-39
2021/11/29 11:41:13;;;;;;;9.07;6.32;;;2.90;99.90;;;;;;12220403;29;20059;-38
2021/11/29 11:47:17;;;;;;;11.70;7.03;;;3.00;99.90;;;;;;12221314;29;20408;-39
2021/11/29 11:53:20;;;;;;;9.77;5.95;;;3.10;99.90;;;;;;12219219;29;20051;-39
2021/11/29 11:59:28;;;;;;;10.88;6.25;;;3.00;99.90;;;;;;12263191;28;20095;-39
2021/11/29 12:05:37;;;;;;;9.70;6.90;;;2.90;99.90;;;;;;12246684;28;20516;-39
2021/11/29 12:12:05;;;;;;;11.52;7.00;;;2.70;99.90;;;;;;12260009;28;20428;-39
2021/11/29 12:18:13;;;;;;;10.57;6.40;;;2.90;99.90;;;;;;12261289;28;20059;-40
2021/11/29 12:24:20;;;;;;;12.00;6.97;;;3.30;99.90;;;;;;12260641;28;20047;-39
2021/11/29 12:30:44;;;;;;;10.77;6.95;;;3.50;99.90;;;;;;12264702;28;20081;-39
2021/11/29 12:36:58;;;;;;;9.60;5.90;;;3.60;99.90;;;;;;12262658;28;20101;-40
2021/11/29 12:43:01;;;;;;;9.70;5.85;;;3.70;99.90;;;;;;12262311;28;20090;-38
2021/11/29 12:49:08;;;;;;;8.68;5.35;;;3.60;99.90;;;;;;12263723;28;20078;-38
2021/11/29 12:55:20;;;;;;;9.45;5.88;;;3.80;99.90;;;;;;12242664;28;20142;-39
2021/11/29 13:01:32;;;;;;;8.80;5.30;;;4.00;99.90;;;;;;12221174;29;20075;-39
2021/11/29 13:08:22;;;;;;;7.65;4.55;;;3.60;99.90;;;;;;12218452;29;20055;-38
2021/11/29 13:14:28;;;;;;;10.52;5.50;;;3.40;99.90;;;;;;12213754;29;20048;-39
2021/11/29 13:20:51;;;;;;;9.00;5.20;;;3.30;99.90;;;;;;12197969;29;20134;-39
2021/11/29 13:27:20;;;;;;;7.72;4.53;;;3.30;99.90;;;;;;12225064;29;20056;-37
2021/11/29 13:33:31;;;;;;;6.82;4.22;;;3.30;99.90;;;;;;12198913;29;20059;-37
2021/11/29 13:39:45;;;;;;;8.15;4.70;;;3.30;99.90;;;;;;12214857;29;20425;-39
2021/11/29 13:45:54;;;;;;;10.02;5.50;;;3.30;99.90;;;;;;12225153;29;20046;-38
2021/11/29 13:52:02;;;;;;;13.85;5.57;;;3.40;99.90;;;;;;12231386;29;20060;-39
2021/11/29 13:58:24;;;;;;;9.00;5.53;;;3.40;99.90;;;;;;12269079;28;20047;-39
2021/11/29 14:04:37;;;;;;;9.48;4.75;;;3.30;99.90;;;;;;12286308;28;20062;-38
2021/11/29 14:10:58;;;;;;;8.93;5.50;;;3.30;99.90;;;;;;12288458;28;20190;-39
2021/11/29 14:17:13;;;;;;;8.18;5.20;;;3.20;99.90;;;;;;12279903;28;20086;-38
2021/11/29 14:23:52;;;;;;;9.00;5.03;;;3.10;99.90;;;;;;12273216;28;20550;-37
2021/11/29 14:30:04;;;;;;;9.30;5.75;;;3.00;99.90;;;;;;12263886;28;20056;-39
2021/11/29 14:36:36;;;;;;;9.27;4.78;;;3.00;99.90;;;;;;12279838;28;20066;-38
2021/11/29 14:42:49;;;;;;;7.47;4.97;;;3.20;99.90;;;;;;12273072;28;20204;-39
2021/11/29 14:49:15;;;;;;;12.65;5.22;;;3.10;99.90;;;;;;12277430;28;20074;-37
2021/11/29 14:55:39;;;;;;;8.55;5.18;;;3.10;99.90;;;;;;12270416;28;20259;-38
2021/11/29 15:02:04;;;;;;;8.60;5.55;;;3.10;99.90;;;;;;12264538;28;20055;-38
2021/11/29 15:08:24;;;;;;;9.90;5.15;;;3.00;99.90;;;;;;12270112;28;20137;-39
2021/11/29 15:14:38;;;;;;;9.48;4.70;;;3.10;99.90;;;;;;12265704;28;20525;-39
2021/11/29 15:20:53;;;;;;;10.27;5.00;;;2.90;99.90;;;;;;12271223;28;20060;-38
2021/11/29 15:27:32;;;;;;;9.15;4.95;;;3.00;99.90;;;;;;12254850;28;20055;-38
2021/11/29 15:33:39;;;;;;;8.93;4.78;;;2.90;99.90;;;;;;12271687;28;20066;-39
2021/11/29 15:39:44;;;;;;;10.25;4.70;;;2.90;99.90;;;;;;12258487;28;20117;-38
2021/11/29 15:46:09;;;;;;;8.88;5.68;;;2.90;99.90;;;;;;12261545;28;20113;-38
2021/11/29 15:52:12;;;;;;;12.23;5.97;;;3.00;99.90;;;;;;12272590;28;20087;-38
2021/11/29 15:58:25;;;;;;;11.27;5.93;;;2.80;99.90;;;;;;12248804;28;20129;-38
2021/11/29 16:04:33;;;;;;;13.50;7.68;;;2.80;99.90;;;;;;12259106;28;20059;-38
2021/11/29 16:10:39;;;;;;;9.95;6.40;;;2.90;99.90;;;;;;12266068;28;20056;-39
2021/11/29 16:16:42;;;;;;;10.95;6.93;;;2.80;99.90;;;;;;12265552;28;21255;-37
2021/11/29 16:22:44;;;;;;;13.82;7.03;;;2.90;99.90;;;;;;12266351;28;20066;-38
2021/11/29 16:28:47;;;;;;;11.38;7.65;;;2.80;99.90;;;;;;12249088;28;20055;-38
2021/11/29 16:34:50;;;;;;;10.68;7.18;;;2.90;99.90;;;;;;12249838;28;20817;-37
2021/11/29 16:41:01;;;;;;;13.75;8.02;;;2.90;99.90;;;;;;12254522;28;20051;-38
2021/11/29 16:47:03;;;;;;;13.20;8.82;;;2.90;99.90;;;;;;12265217;28;20058;-37
2021/11/29 16:53:05;;;;;;;18.70;10.18;;;2.90;99.90;;;;;;12270251;28;20687;-37
2021/11/29 16:59:09;;;;;;;22.33;13.73;;;2.90;99.90;;;;;;12259485;28;20056;-38
2021/11/29 17:05:18;;;;;;;25.40;16.38;;;2.90;99.90;;;;;;12261417;28;20098;-38
2021/11/29 17:11:22;;;;;;;32.00;19.63;;;2.90;99.90;;;;;;12255783;28;20052;-39
2021/11/29 17:17:25;;;;;;;26.52;17.50;;;2.90;99.90;;;;;;12268362;28;20513;-39
2021/11/29 17:23:27;;;;;;;23.02;15.85;;;2.90;99.90;;;;;;12268319;28;20048;-39
2021/11/29 17:29:33;;;;;;;23.27;13.77;;;2.80;99.90;;;;;;12273659;28;20718;-39
2021/11/29 17:35:42;;;;;;;18.45;12.10;;;2.80;99.90;;;;;;12267748;28;20139;-38
2021/11/29 17:41:45;;;;;;;19.87;12.63;;;2.80;99.90;;;;;;12268546;28;20052;-39
2021/11/29 17:47:49;;;;;;;17.30;11.07;;;2.80;99.90;;;;;;12257304;28;20294;-39
2021/11/29 17:53:52;;;;;;;16.88;10.68;;;2.70;99.90;;;;;;12270147;28;20062;-39
2021/11/29 17:59:54;;;;;;;20.42;10.43;;;2.70;99.90;;;;;;12269111;28;20058;-39
2021/11/29 18:05:59;;;;;;;18.23;10.18;;;2.70;99.90;;;;;;12273374;28;20086;-39
2021/11/29 18:18:22;;;;;;;17.10;11.15;;;2.60;99.90;;;;;;12269238;28;20082;-37
2021/11/29 18:24:29;;;;;;;16.67;10.38;;;2.60;99.90;;;;;;12265350;28;20146;-37
2021/11/29 18:30:38;;;;;;;15.45;10.52;;;2.60;99.90;;;;;;12272686;28;20091;-37
2021/11/29 18:36:40;;;;;;;17.13;10.77;;;2.50;99.90;;;;;;12272387;28;20048;-38
2021/11/29 18:42:48;;;;;;;17.80;11.75;;;2.60;99.90;;;;;;12268665;28;20410;-38
2021/11/29 18:48:50;;;;;;;21.05;12.55;;;2.70;99.90;;;;;;12269677;28;20390;-37
2021/11/29 18:54:52;;;;;;;17.25;11.20;;;2.60;99.90;;;;;;12238122;28;20056;-38
2021/11/29 19:00:59;;;;;;;19.80;12.35;;;2.40;99.90;;;;;;12217478;29;20079;-39
2021/11/29 19:07:02;;;;;;;20.02;12.02;;;2.40;99.90;;;;;;12217099;29;20145;-38
2021/11/29 19:13:04;;;;;;;23.75;12.80;;;2.30;99.90;;;;;;12217453;29;20051;-38
2021/11/29 19:19:06;;;;;;;22.13;13.18;;;2.20;99.90;;;;;;12218756;29;20543;-38
2021/11/29 19:25:13;;;;;;;22.13;13.20;;;2.10;99.90;;;;;;12215333;29;20386;-38
2021/11/29 19:31:15;;;;;;;25.45;13.50;;;2.00;99.90;;;;;;12196363;29;20140;-38
2021/11/29 19:37:17;;;;;;;24.52;13.30;;;2.00;99.90;;;;;;12221848;29;20066;-38
2021/11/29 19:43:28;;;;;;;23.88;13.02;;;2.00;99.90;;;;;;12228336;29;20055;-39
2021/11/29 19:49:43;;;;;;;25.90;14.45;;;1.90;99.90;;;;;;12233035;29;20488;-37
2021/11/29 19:56:01;;;;;;;24.33;13.32;;;1.90;99.90;;;;;;12224798;29;20098;-38
2021/11/29 20:02:13;;;;;;;25.85;14.05;;;1.90;99.90;;;;;;12221868;29;20055;-37
2021/11/29 20:08:41;;;;;;;25.07;13.30;;;1.90;99.90;;;;;;12211872;29;20135;-37
2021/11/29 20:14:43;;;;;;;23.50;12.80;;;1.90;99.90;;;;;;12215988;29;20490;-38
2021/11/29 20:20:48;;;;;;;23.25;13.25;;;1.90;99.90;;;;;;12216946;29;20102;-39
2021/11/29 20:26:51;;;;;;;25.08;13.00;;;1.90;99.90;;;;;;12217057;29;20059;-38
2021/11/29 20:32:56;;;;;;;23.60;13.18;;;1.80;99.90;;;;;;12217180;29;20111;-39
2021/11/29 20:38:59;;;;;;;23.75;13.63;;;1.90;99.90;;;;;;12215811;29;20103;-38
2021/11/29 20:45:04;;;;;;;29.05;14.32;;;1.90;99.90;;;;;;12214987;29;20052;-38
2021/11/29 20:51:06;;;;;;;25.40;13.30;;;1.80;99.90;;;;;;12226759;29;20115;-39
2021/11/29 20:57:08;;;;;;;23.73;13.75;;;1.80;99.90;;;;;;12244022;28;20070;-38
2021/11/29 21:03:11;;;;;;;24.88;13.48;;;1.70;99.90;;;;;;12270228;28;20436;-38
2021/11/29 21:09:13;;;;;;;24.67;13.73;;;1.80;99.90;;;;;;12273045;28;20043;-39
2021/11/29 21:15:22;;;;;;;22.92;13.43;;;1.70;99.90;;;;;;12269809;28;20071;-39
2021/11/29 21:21:24;;;;;;;24.00;12.73;;;1.80;99.90;;;;;;12270333;28;20121;-39
2021/11/29 21:27:27;;;;;;;23.88;13.40;;;1.80;99.90;;;;;;12272781;28;20074;-39
2021/11/29 21:33:29;;;;;;;24.00;13.60;;;1.80;99.90;;;;;;12257638;28;20051;-38
2021/11/29 21:39:31;;;;;;;25.70;12.80;;;1.90;99.90;;;;;;12270558;28;20090;-40
2021/11/29 21:45:33;;;;;;;27.23;13.38;;;2.00;99.90;;;;;;12270284;28;20154;-39
2021/11/29 21:51:35;;;;;;;23.08;13.10;;;2.10;99.90;;;;;;12269800;28;20485;-40
2021/11/29 21:57:40;;;;;;;22.08;12.88;;;2.20;99.90;;;;;;12270922;28;20100;-39
2021/11/29 22:03:42;;;;;;;21.17;12.82;;;2.20;99.90;;;;;;12250101;28;20051;-38
2021/11/29 22:09:44;;;;;;;23.00;13.02;;;2.30;99.90;;;;;;12270595;28;20051;-39
2021/11/29 22:15:46;;;;;;;22.55;13.20;;;2.40;99.90;;;;;;12271472;28;20633;-39
2021/11/29 22:21:48;;;;;;;22.88;13.23;;;2.40;99.90;;;;;;12273949;28;20039;-39
2021/11/29 22:27:51;;;;;;;27.85;15.55;;;2.40;99.90;;;;;;12262577;28;20051;-38
2021/11/29 22:33:53;;;;;;;25.45;16.50;;;2.40;99.90;;;;;;12269264;28;20051;-39
2021/11/29 22:39:55;;;;;;;30.13;15.93;;;2.40;99.90;;;;;;12266607;28;20051;-39
2021/11/29 22:45:57;;;;;;;29.88;17.92;;;2.40;99.90;;;;;;12267498;28;20098;-38
2021/11/29 22:51:59;;;;;;;28.52;17.65;;;2.40;99.90;;;;;;12261702;28;20051;-39
2021/11/29 22:58:02;;;;;;;32.30;17.65;;;2.40;99.90;;;;;;12265284;28;20270;-38
2021/11/29 23:04:08;;;;;;;30.88;19.08;;;2.50;99.90;;;;;;12266133;28;20094;-38
2021/11/29 23:10:11;;;;;;;33.63;19.20;;;2.50;99.90;;;;;;12263049;28;20079;-38
2021/11/29 23:16:14;;;;;;;32.45;18.55;;;2.50;99.90;;;;;;12263807;28;20055;-40
2021/11/29 23:22:16;;;;;;;34.55;19.30;;;2.60;99.90;;;;;;12266091;28;21039;-39
2021/11/29 23:28:18;;;;;;;34.80;20.55;;;2.70;99.90;;;;;;12265957;28;20598;-38
2021/11/29 23:34:24;;;;;;;57.45;22.33;;;2.70;99.90;;;;;;12263782;28;20066;-38
2021/11/29 23:40:30;;;;;;;38.67;22.80;;;2.80;99.90;;;;;;12263958;28;20059;-38
2021/11/29 23:52:41;;;;;;;34.55;21.00;;;2.80;99.90;;;;;;12261036;28;20048;-38
2021/11/29 23:58:48;;;;;;;34.95;21.85;;;2.90;99.90;;;;;;12264229;28;20139;-38
